Список аэропортов
Фактическая погода:

24 мая, 16:00
Температура: +23°C (+23.0*)
Ветер: западный 3 м/с
Давление: *758 мм
Без существ. явл.
Время (МСК)Темп. СВетерВлажностьДавлениеОблачностьОсадки
15:00+24ЮЗ, 3 м/с31%1011 гПас прояснениями
16:00+24ЮЗ, 3 м/с32%1011 гПас прояснениями
17:00+23ЮЗ, 4 м/с38%1011 гПаоблачно
18:00+22Ю, 3 м/с46%1011 гПас прояснениямисл. дождь
19:00+21ЮЗ, 3 м/с58%1011 гПаоблачнодождь
20:00+18Ю, 1 м/с72%1011 гПаоблачнодождь
21:00+17Ю, 2 м/с78%1011 гПас прояснениями
22:00+16Ю, 2 м/с84%1011 гПас прояснениями
23:00+15Ю, 2 м/с88%1011 гПаоблачно
25 мая
00:00+14Ю, 2 м/с88%1011 гПаоблачно
01:00+13ЮЗ, 2 м/с87%1011 гПас прояснениями
02:00+13ЮЗ, 3 м/с84%1012 гПаоблачно
03:00+13ЮЗ, 2 м/с84%1011 гПаоблачно
04:00+12ЮЗ, 2 м/с88%1011 гПаоблачносл. дождь
05:00+12ЮЗ, 2 м/с89%1011 гПаоблачно
06:00+13Ю, 2 м/с90%1011 гПаоблачно
07:00+14Ю, 3 м/с88%1011 гПаоблачносл. дождь
08:00+16Ю, 3 м/с77%1011 гПаоблачно
09:00+18Ю, 4 м/с66%1010 гПаоблачно
10:00+22Ю, 5 м/с53%1009 гПаоблачно
11:00+23ЮЗ, 6 м/с49%1009 гПаоблачно
12:00+24ЮЗ, 7 м/с41%1008 гПаоблачно
13:00+22ЮЗ, 7 м/с46%1008 гПаоблачносл. дождь
14:00+23ЮЗ, 9 м/с36%1008 гПаоблачно
15:00+23ЮЗ, 9 м/с36%1008 гПаоблачно
16:00+22ЮЗ, 9 м/с39%1008 гПаоблачнодождь
17:00+17З, 6 м/с83%1009 гПаоблачнодождь
18:00+16ЮЗ, 5 м/с83%1009 гПаоблачнодождь
19:00+16ЮЗ, 4 м/с83%1009 гПаоблачно
20:00+16ЮЗ, 4 м/с81%1009 гПаоблачно
21:00+15ЮЗ, 3 м/с83%1009 гПаоблачно
22:00+15ЮЗ, 3 м/с86%1009 гПаоблачно
23:00+14ЮЗ, 3 м/с88%1009 гПаоблачно
26 мая
00:00+14ЮЗ, 3 м/с92%1009 гПас прояснениями
01:00+12ЮЗ, 2 м/с97%1009 гПаоблачно
02:00+12ЮЗ, 3 м/с97%1009 гПаоблачно
03:00+12ЮЗ, 2 м/с98%1008 гПаоблачно
04:00+12ЮЗ, 2 м/с99%1008 гПаоблачно
05:00+12ЮЗ, 2 м/с99%1008 гПаоблачносл. дождь
06:00+13Ю, 1 м/с97%1007 гПаоблачнодождь
07:00+13Ю, 1 м/с96%1007 гПаоблачнодождь
08:00+15Ю, 2 м/с92%1006 гПаоблачносл. дождь
09:00+16Ю, 3 м/с85%1006 гПаоблачно
10:00+16ЮЗ, 2 м/с78%1006 гПаоблачносл. дождь
11:00+17Ю, 2 м/с73%1005 гПаоблачносл. дождь
12:00+17Ю, 3 м/с80%1005 гПаоблачнодождь
13:00+18ЮЗ, 4 м/с76%1004 гПаоблачносл. дождь
14:00+20ЮЗ, 4 м/с63%1004 гПаоблачно
15:00+20ЮЗ, 3 м/с55%1003 гПаоблачносл. дождь